Lumberton Municipal Airport
KLBT : now visible

Airfield :











YOU CAN JOIN US ON...

 
LOGIN :

Register | Disclaimer

   EN    FR    IT 

 









Legend :    VFR   Marginal VFR   IFR   Intensive IFR   Very Intensive IFR
Visi :
Ceiling :
>= 8 km
>= 3000ft
5 to 8 km
1000 to 3000 ft
1500m to 5 km
500 to 1000 ft
800 to 1500m
200 to 500 ft
< 800m
< 200 ft
Symbols :   Thunderstorms  Fog  Heavy snow  Heavy precipitations  Wind > 20 kt






- Airport Elevation : 126 ft


KLBT - Lumberton Municipal

METAR N/A
TAF KLBT
Valid from the 14 at 18:00 until the 15 at 18:00 UTC


141727Z 1418/1518 26013G20KT P6SM BKN010
FM141900 26012G19KT P6SM BKN018 BKN120
FM142000 26011G18KT P6SM SCT120
FM142300 26009KT P6SM FEW250
FM151000 VRB03KT P6SM SKC
FM151400 26005KT P6SM SKC AMD NOT SKED



MET'MAP, your aeronautical weather chart ! - Copyright ORBIFLY December 2007 - Disclaimer

ORBIFLY MET'MAP TEAM :

Programming & Development : Alexandra Zaïnal
Concept & original design : Baudouin d'Aumeries
Assistance for programming : Marc-Olivier Méhu
Technical & hardware support : Manuel Goepfert

Contact : metmap@orbifly.com




SOURCES & CREDITS :

   NOAA       Earth
Advisory